sensor_id;sensor_type;location;lat;lon;timestamp;P1;durP1;ratioP1;P2;durP2;ratioP2
72406;SDS011;60396;47.550;18.828;2023-03-01T00:01:19;17.40;;;7.37;;
72406;SDS011;60396;47.550;18.828;2023-03-01T00:03:48;18.25;;;7.45;;
72406;SDS011;60396;47.550;18.828;2023-03-01T00:06:16;22.92;;;8.35;;
72406;SDS011;60396;47.550;18.828;2023-03-01T00:08:44;17.83;;;8.18;;
72406;SDS011;60396;47.550;18.828;2023-03-01T00:11:20;14.75;;;7.87;;
72406;SDS011;60396;47.550;18.828;2023-03-01T00:13:52;19.10;;;8.40;;
72406;SDS011;60396;47.550;18.828;2023-03-01T00:16:27;16.33;;;8.02;;
72406;SDS011;60396;47.550;18.828;2023-03-01T00:18:57;17.67;;;7.75;;
72406;SDS011;60396;47.550;18.828;2023-03-01T00:21:25;16.35;;;8.23;;
72406;SDS011;60396;47.550;18.828;2023-03-01T00:23:53;17.67;;;8.10;;
72406;SDS011;60396;47.550;18.828;2023-03-01T00:26:21;18.20;;;7.67;;
72406;SDS011;60396;47.550;18.828;2023-03-01T00:28:50;17.30;;;7.53;;
72406;SDS011;60396;47.550;18.828;2023-03-01T00:31:21;14.40;;;7.30;;
72406;SDS011;60396;47.550;18.828;2023-03-01T00:33:54;15.63;;;6.85;;
72406;SDS011;60396;47.550;18.828;2023-03-01T00:36:26;15.88;;;7.03;;
72406;SDS011;60396;47.550;18.828;2023-03-01T00:38:57;14.83;;;7.13;;
72406;SDS011;60396;47.550;18.828;2023-03-01T00:41:26;16.35;;;6.60;;
72406;SDS011;60396;47.550;18.828;2023-03-01T00:43:54;16.27;;;7.00;;
72406;SDS011;60396;47.550;18.828;2023-03-01T00:46:23;16.10;;;7.28;;
72406;SDS011;60396;47.550;18.828;2023-03-01T00:48:53;15.23;;;7.05;;
72406;SDS011;60396;47.550;18.828;2023-03-01T00:51:22;14.00;;;6.83;;
72406;SDS011;60396;47.550;18.828;2023-03-01T00:53:52;14.50;;;6.87;;
72406;SDS011;60396;47.550;18.828;2023-03-01T00:56:20;16.27;;;7.12;;
72406;SDS011;60396;47.550;18.828;2023-03-01T00:58:48;15.85;;;7.05;;
72406;SDS011;60396;47.550;18.828;2023-03-01T01:01:17;16.48;;;7.47;;
72406;SDS011;60396;47.550;18.828;2023-03-01T01:03:50;14.87;;;7.00;;
72406;SDS011;60396;47.550;18.828;2023-03-01T01:09:01;18.23;;;7.40;;
72406;SDS011;60396;47.550;18.828;2023-03-01T01:11:30;14.70;;;6.85;;
72406;SDS011;60396;47.550;18.828;2023-03-01T01:13:58;15.20;;;6.50;;
72406;SDS011;60396;47.550;18.828;2023-03-01T01:16:27;14.60;;;6.50;;
72406;SDS011;60396;47.550;18.828;2023-03-01T01:18:56;15.45;;;7.20;;
72406;SDS011;60396;47.550;18.828;2023-03-01T01:21:24;19.80;;;7.20;;
72406;SDS011;60396;47.550;18.828;2023-03-01T01:23:53;16.85;;;7.22;;
72406;SDS011;60396;47.550;18.828;2023-03-01T01:26:24;17.70;;;7.80;;
72406;SDS011;60396;47.550;18.828;2023-03-01T01:28:54;16.83;;;7.33;;
72406;SDS011;60396;47.550;18.828;2023-03-01T01:31:22;17.52;;;7.57;;
72406;SDS011;60396;47.550;18.828;2023-03-01T01:33:51;16.87;;;7.57;;
72406;SDS011;60396;47.550;18.828;2023-03-01T01:36:19;14.68;;;6.28;;
72406;SDS011;60396;47.550;18.828;2023-03-01T01:38:47;14.25;;;6.12;;
72406;SDS011;60396;47.550;18.828;2023-03-01T01:41:16;14.77;;;6.53;;
72406;SDS011;60396;47.550;18.828;2023-03-01T01:43:45;14.87;;;6.93;;
72406;SDS011;60396;47.550;18.828;2023-03-01T01:46:21;12.90;;;6.43;;
72406;SDS011;60396;47.550;18.828;2023-03-01T01:48:55;14.05;;;5.97;;
72406;SDS011;60396;47.550;18.828;2023-03-01T01:51:27;12.73;;;5.57;;
72406;SDS011;60396;47.550;18.828;2023-03-01T01:54:10;14.53;;;6.07;;
72406;SDS011;60396;47.550;18.828;2023-03-01T01:56:44;14.13;;;6.20;;
72406;SDS011;60396;47.550;18.828;2023-03-01T01:59:15;14.45;;;6.03;;
72406;SDS011;60396;47.550;18.828;2023-03-01T02:01:43;15.60;;;6.60;;
72406;SDS011;60396;47.550;18.828;2023-03-01T02:04:13;14.68;;;6.28;;
72406;SDS011;60396;47.550;18.828;2023-03-01T02:06:41;16.37;;;7.20;;
72406;SDS011;60396;47.550;18.828;2023-03-01T02:09:14;15.93;;;6.12;;
72406;SDS011;60396;47.550;18.828;2023-03-01T02:11:43;14.50;;;6.53;;
72406;SDS011;60396;47.550;18.828;2023-03-01T02:14:11;14.95;;;6.03;;
72406;SDS011;60396;47.550;18.828;2023-03-01T02:16:39;14.65;;;6.10;;
72406;SDS011;60396;47.550;18.828;2023-03-01T02:19:07;14.93;;;6.43;;
72406;SDS011;60396;47.550;18.828;2023-03-01T02:24:32;16.35;;;6.82;;
72406;SDS011;60396;47.550;18.828;2023-03-01T02:27:03;13.85;;;6.43;;
72406;SDS011;60396;47.550;18.828;2023-03-01T02:29:32;14.30;;;7.00;;
72406;SDS011;60396;47.550;18.828;2023-03-01T02:32:00;15.83;;;6.40;;
72406;SDS011;60396;47.550;18.828;2023-03-01T02:34:30;14.18;;;6.65;;
72406;SDS011;60396;47.550;18.828;2023-03-01T02:39:40;15.23;;;6.35;;
72406;SDS011;60396;47.550;18.828;2023-03-01T02:42:11;17.90;;;7.05;;
72406;SDS011;60396;47.550;18.828;2023-03-01T02:44:40;14.63;;;6.63;;
72406;SDS011;60396;47.550;18.828;2023-03-01T02:47:07;14.25;;;6.65;;
72406;SDS011;60396;47.550;18.828;2023-03-01T02:49:36;14.52;;;6.40;;
72406;SDS011;60396;47.550;18.828;2023-03-01T02:55:12;14.73;;;6.40;;
72406;SDS011;60396;47.550;18.828;2023-03-01T02:57:42;13.87;;;6.17;;
72406;SDS011;60396;47.550;18.828;2023-03-01T03:00:13;14.80;;;6.57;;
72406;SDS011;60396;47.550;18.828;2023-03-01T03:02:48;15.98;;;6.65;;
72406;SDS011;60396;47.550;18.828;2023-03-01T03:05:24;14.73;;;6.65;;
72406;SDS011;60396;47.550;18.828;2023-03-01T03:07:54;16.65;;;6.57;;
72406;SDS011;60396;47.550;18.828;2023-03-01T03:10:24;13.20;;;5.67;;
72406;SDS011;60396;47.550;18.828;2023-03-01T03:12:55;15.23;;;6.60;;
72406;SDS011;60396;47.550;18.828;2023-03-01T03:15:31;14.02;;;6.35;;
72406;SDS011;60396;47.550;18.828;2023-03-01T03:17:59;13.65;;;6.18;;
72406;SDS011;60396;47.550;18.828;2023-03-01T03:20:27;13.07;;;5.80;;
72406;SDS011;60396;47.550;18.828;2023-03-01T03:22:56;17.67;;;6.30;;
72406;SDS011;60396;47.550;18.828;2023-03-01T03:25:26;13.57;;;5.90;;
72406;SDS011;60396;47.550;18.828;2023-03-01T03:27:55;14.13;;;6.45;;
72406;SDS011;60396;47.550;18.828;2023-03-01T03:30:25;17.37;;;6.53;;
72406;SDS011;60396;47.550;18.828;2023-03-01T03:32:54;13.32;;;5.95;;
72406;SDS011;60396;47.550;18.828;2023-03-01T03:35:27;14.70;;;5.93;;
72406;SDS011;60396;47.550;18.828;2023-03-01T03:38:01;15.75;;;6.15;;
72406;SDS011;60396;47.550;18.828;2023-03-01T03:40:35;14.55;;;6.40;;
72406;SDS011;60396;47.550;18.828;2023-03-01T03:43:05;13.85;;;5.15;;
72406;SDS011;60396;47.550;18.828;2023-03-01T03:45:34;13.32;;;5.90;;
72406;SDS011;60396;47.550;18.828;2023-03-01T03:48:03;13.97;;;5.67;;
72406;SDS011;60396;47.550;18.828;2023-03-01T03:50:32;16.15;;;6.22;;
72406;SDS011;60396;47.550;18.828;2023-03-01T03:53:01;13.75;;;5.60;;
72406;SDS011;60396;47.550;18.828;2023-03-01T03:55:30;14.70;;;6.03;;
72406;SDS011;60396;47.550;18.828;2023-03-01T03:58:02;16.23;;;6.35;;
72406;SDS011;60396;47.550;18.828;2023-03-01T04:00:34;14.13;;;6.33;;
72406;SDS011;60396;47.550;18.828;2023-03-01T04:03:04;13.07;;;5.97;;
72406;SDS011;60396;47.550;18.828;2023-03-01T04:05:32;15.75;;;6.70;;
72406;SDS011;60396;47.550;18.828;2023-03-01T04:08:00;14.05;;;6.18;;
72406;SDS011;60396;47.550;18.828;2023-03-01T04:10:35;15.20;;;6.00;;
72406;SDS011;60396;47.550;18.828;2023-03-01T04:13:11;15.03;;;5.97;;
72406;SDS011;60396;47.550;18.828;2023-03-01T04:15:41;15.57;;;6.55;;
72406;SDS011;60396;47.550;18.828;2023-03-01T04:18:13;14.82;;;5.97;;
72406;SDS011;60396;47.550;18.828;2023-03-01T04:20:42;17.20;;;6.50;;
72406;SDS011;60396;47.550;18.828;2023-03-01T04:23:16;19.35;;;6.30;;
72406;SDS011;60396;47.550;18.828;2023-03-01T04:25:51;19.23;;;6.80;;
72406;SDS011;60396;47.550;18.828;2023-03-01T04:28:23;16.17;;;6.75;;
72406;SDS011;60396;47.550;18.828;2023-03-01T04:31:02;15.07;;;6.60;;
72406;SDS011;60396;47.550;18.828;2023-03-01T04:33:47;15.48;;;6.50;;
72406;SDS011;60396;47.550;18.828;2023-03-01T04:36:20;15.20;;;6.30;;
72406;SDS011;60396;47.550;18.828;2023-03-01T04:38:50;14.00;;;6.17;;
72406;SDS011;60396;47.550;18.828;2023-03-01T04:41:19;15.57;;;6.20;;
72406;SDS011;60396;47.550;18.828;2023-03-01T04:43:49;16.73;;;6.40;;
72406;SDS011;60396;47.550;18.828;2023-03-01T04:46:17;15.75;;;6.20;;
72406;SDS011;60396;47.550;18.828;2023-03-01T04:48:46;15.10;;;6.65;;
72406;SDS011;60396;47.550;18.828;2023-03-01T04:51:15;14.33;;;6.07;;
72406;SDS011;60396;47.550;18.828;2023-03-01T04:53:43;13.98;;;6.12;;
72406;SDS011;60396;47.550;18.828;2023-03-01T04:56:11;19.98;;;6.53;;
72406;SDS011;60396;47.550;18.828;2023-03-01T04:58:41;13.35;;;5.35;;
72406;SDS011;60396;47.550;18.828;2023-03-01T05:01:13;13.60;;;5.87;;
72406;SDS011;60396;47.550;18.828;2023-03-01T05:03:46;13.30;;;5.80;;
72406;SDS011;60396;47.550;18.828;2023-03-01T05:06:15;14.38;;;6.07;;
72406;SDS011;60396;47.550;18.828;2023-03-01T05:08:44;14.93;;;6.12;;
72406;SDS011;60396;47.550;18.828;2023-03-01T05:11:12;14.65;;;5.80;;
72406;SDS011;60396;47.550;18.828;2023-03-01T05:13:40;14.93;;;6.50;;
72406;SDS011;60396;47.550;18.828;2023-03-01T05:16:08;15.83;;;6.07;;
72406;SDS011;60396;47.550;18.828;2023-03-01T05:18:39;13.07;;;5.78;;
72406;SDS011;60396;47.550;18.828;2023-03-01T05:21:08;17.40;;;7.82;;
72406;SDS011;60396;47.550;18.828;2023-03-01T05:23:37;14.10;;;5.75;;
72406;SDS011;60396;47.550;18.828;2023-03-01T05:26:05;14.45;;;6.05;;
72406;SDS011;60396;47.550;18.828;2023-03-01T05:28:49;14.83;;;5.83;;
72406;SDS011;60396;47.550;18.828;2023-03-01T05:31:17;16.30;;;6.72;;
72406;SDS011;60396;47.550;18.828;2023-03-01T05:33:44;13.80;;;5.62;;
72406;SDS011;60396;47.550;18.828;2023-03-01T05:36:12;12.65;;;6.28;;
72406;SDS011;60396;47.550;18.828;2023-03-01T05:38:40;15.57;;;6.90;;
72406;SDS011;60396;47.550;18.828;2023-03-01T05:41:13;14.33;;;5.73;;
72406;SDS011;60396;47.550;18.828;2023-03-01T05:43:42;15.30;;;6.60;;
72406;SDS011;60396;47.550;18.828;2023-03-01T05:46:12;13.98;;;6.47;;
72406;SDS011;60396;47.550;18.828;2023-03-01T05:48:40;13.90;;;5.65;;
72406;SDS011;60396;47.550;18.828;2023-03-01T05:51:08;13.57;;;5.65;;
72406;SDS011;60396;47.550;18.828;2023-03-01T05:53:36;15.03;;;5.77;;
72406;SDS011;60396;47.550;18.828;2023-03-01T05:56:03;12.25;;;5.80;;
72406;SDS011;60396;47.550;18.828;2023-03-01T05:58:32;15.77;;;7.10;;
72406;SDS011;60396;47.550;18.828;2023-03-01T06:00:59;17.92;;;9.35;;
72406;SDS011;60396;47.550;18.828;2023-03-01T06:03:27;26.02;;;11.38;;
72406;SDS011;60396;47.550;18.828;2023-03-01T06:05:57;17.70;;;8.30;;
72406;SDS011;60396;47.550;18.828;2023-03-01T06:08:25;17.62;;;8.23;;
72406;SDS011;60396;47.550;18.828;2023-03-01T06:10:54;15.65;;;8.00;;
72406;SDS011;60396;47.550;18.828;2023-03-01T06:13:23;16.92;;;6.82;;
72406;SDS011;60396;47.550;18.828;2023-03-01T06:15:51;14.25;;;6.68;;
72406;SDS011;60396;47.550;18.828;2023-03-01T06:18:19;16.83;;;6.50;;
72406;SDS011;60396;47.550;18.828;2023-03-01T06:20:52;15.32;;;6.55;;
72406;SDS011;60396;47.550;18.828;2023-03-01T06:23:23;15.52;;;7.25;;
72406;SDS011;60396;47.550;18.828;2023-03-01T06:25:52;14.13;;;6.35;;
72406;SDS011;60396;47.550;18.828;2023-03-01T06:28:19;14.27;;;5.37;;
72406;SDS011;60396;47.550;18.828;2023-03-01T06:30:49;18.37;;;6.17;;
72406;SDS011;60396;47.550;18.828;2023-03-01T06:33:17;15.32;;;6.55;;
72406;SDS011;60396;47.550;18.828;2023-03-01T06:35:47;14.98;;;5.60;;
72406;SDS011;60396;47.550;18.828;2023-03-01T06:38:15;15.45;;;5.72;;
72406;SDS011;60396;47.550;18.828;2023-03-01T06:40:44;15.90;;;6.30;;
72406;SDS011;60396;47.550;18.828;2023-03-01T06:43:12;13.37;;;6.23;;
72406;SDS011;60396;47.550;18.828;2023-03-01T06:45:40;15.25;;;6.18;;
72406;SDS011;60396;47.550;18.828;2023-03-01T06:48:08;16.10;;;6.30;;
72406;SDS011;60396;47.550;18.828;2023-03-01T06:50:36;15.65;;;5.85;;
72406;SDS011;60396;47.550;18.828;2023-03-01T06:53:04;14.45;;;5.72;;
72406;SDS011;60396;47.550;18.828;2023-03-01T06:55:32;14.90;;;6.20;;
72406;SDS011;60396;47.550;18.828;2023-03-01T06:58:01;15.10;;;5.32;;
72406;SDS011;60396;47.550;18.828;2023-03-01T07:00:30;14.73;;;5.78;;
72406;SDS011;60396;47.550;18.828;2023-03-01T07:02:59;14.15;;;6.43;;
72406;SDS011;60396;47.550;18.828;2023-03-01T07:05:29;26.58;;;14.30;;
72406;SDS011;60396;47.550;18.828;2023-03-01T07:07:57;21.80;;;10.67;;
72406;SDS011;60396;47.550;18.828;2023-03-01T07:10:26;17.37;;;8.68;;
72406;SDS011;60396;47.550;18.828;2023-03-01T07:12:54;19.33;;;7.12;;
72406;SDS011;60396;47.550;18.828;2023-03-01T07:15:25;13.70;;;5.95;;
72406;SDS011;60396;47.550;18.828;2023-03-01T07:17:54;14.05;;;6.45;;
72406;SDS011;60396;47.550;18.828;2023-03-01T07:20:23;15.27;;;6.17;;
72406;SDS011;60396;47.550;18.828;2023-03-01T07:22:53;13.45;;;5.85;;
72406;SDS011;60396;47.550;18.828;2023-03-01T07:25:22;14.57;;;6.03;;
72406;SDS011;60396;47.550;18.828;2023-03-01T07:27:50;18.85;;;6.22;;
72406;SDS011;60396;47.550;18.828;2023-03-01T07:30:23;15.27;;;5.95;;
72406;SDS011;60396;47.550;18.828;2023-03-01T07:32:55;14.53;;;5.70;;
72406;SDS011;60396;47.550;18.828;2023-03-01T07:35:27;14.87;;;6.15;;
72406;SDS011;60396;47.550;18.828;2023-03-01T07:37:55;18.35;;;5.62;;
72406;SDS011;60396;47.550;18.828;2023-03-01T07:40:24;13.20;;;5.90;;
72406;SDS011;60396;47.550;18.828;2023-03-01T07:43:01;15.95;;;6.05;;
72406;SDS011;60396;47.550;18.828;2023-03-01T07:45:29;14.00;;;5.43;;
72406;SDS011;60396;47.550;18.828;2023-03-01T07:47:57;16.77;;;6.72;;
72406;SDS011;60396;47.550;18.828;2023-03-01T07:50:25;15.90;;;6.07;;
72406;SDS011;60396;47.550;18.828;2023-03-01T07:52:53;14.75;;;6.12;;
72406;SDS011;60396;47.550;18.828;2023-03-01T07:55:20;13.52;;;5.70;;
72406;SDS011;60396;47.550;18.828;2023-03-01T07:57:51;13.43;;;5.67;;
72406;SDS011;60396;47.550;18.828;2023-03-01T08:00:19;13.55;;;5.60;;
72406;SDS011;60396;47.550;18.828;2023-03-01T08:02:48;18.55;;;7.30;;
72406;SDS011;60396;47.550;18.828;2023-03-01T08:05:16;13.45;;;6.30;;
72406;SDS011;60396;47.550;18.828;2023-03-01T08:07:44;14.05;;;5.75;;
72406;SDS011;60396;47.550;18.828;2023-03-01T08:10:13;13.50;;;5.70;;
72406;SDS011;60396;47.550;18.828;2023-03-01T08:12:40;13.20;;;5.90;;
72406;SDS011;60396;47.550;18.828;2023-03-01T08:15:08;13.60;;;5.47;;
72406;SDS011;60396;47.550;18.828;2023-03-01T08:17:36;11.12;;;4.60;;
72406;SDS011;60396;47.550;18.828;2023-03-01T08:20:05;15.25;;;5.95;;
72406;SDS011;60396;47.550;18.828;2023-03-01T08:22:34;13.33;;;5.60;;
72406;SDS011;60396;47.550;18.828;2023-03-01T08:25:02;12.57;;;5.37;;
72406;SDS011;60396;47.550;18.828;2023-03-01T08:27:30;16.33;;;6.50;;
72406;SDS011;60396;47.550;18.828;2023-03-01T08:29:58;14.48;;;6.25;;
72406;SDS011;60396;47.550;18.828;2023-03-01T08:32:26;14.45;;;6.30;;
72406;SDS011;60396;47.550;18.828;2023-03-01T08:34:54;12.53;;;5.57;;
72406;SDS011;60396;47.550;18.828;2023-03-01T08:37:21;15.95;;;6.10;;
72406;SDS011;60396;47.550;18.828;2023-03-01T08:39:51;13.23;;;5.70;;
72406;SDS011;60396;47.550;18.828;2023-03-01T08:42:19;11.85;;;5.62;;
72406;SDS011;60396;47.550;18.828;2023-03-01T08:44:47;14.90;;;5.40;;
72406;SDS011;60396;47.550;18.828;2023-03-01T08:47:15;14.80;;;6.70;;
72406;SDS011;60396;47.550;18.828;2023-03-01T08:49:44;11.55;;;5.05;;
72406;SDS011;60396;47.550;18.828;2023-03-01T08:52:12;14.25;;;5.80;;
72406;SDS011;60396;47.550;18.828;2023-03-01T08:54:40;13.07;;;6.10;;
72406;SDS011;60396;47.550;18.828;2023-03-01T08:57:07;13.75;;;5.05;;
72406;SDS011;60396;47.550;18.828;2023-03-01T08:59:36;11.90;;;5.17;;
72406;SDS011;60396;47.550;18.828;2023-03-01T09:02:05;11.73;;;5.45;;
72406;SDS011;60396;47.550;18.828;2023-03-01T09:04:37;15.07;;;6.18;;
72406;SDS011;60396;47.550;18.828;2023-03-01T09:07:06;14.02;;;5.18;;
72406;SDS011;60396;47.550;18.828;2023-03-01T09:09:34;14.00;;;6.30;;
72406;SDS011;60396;47.550;18.828;2023-03-01T09:12:03;12.63;;;5.90;;
72406;SDS011;60396;47.550;18.828;2023-03-01T09:14:31;14.52;;;5.32;;
72406;SDS011;60396;47.550;18.828;2023-03-01T09:16:58;11.55;;;5.25;;
72406;SDS011;60396;47.550;18.828;2023-03-01T09:19:30;9.32;;;4.15;;
72406;SDS011;60396;47.550;18.828;2023-03-01T09:21:58;12.52;;;5.03;;
72406;SDS011;60396;47.550;18.828;2023-03-01T09:24:25;12.57;;;5.27;;
72406;SDS011;60396;47.550;18.828;2023-03-01T09:26:54;11.90;;;5.10;;
72406;SDS011;60396;47.550;18.828;2023-03-01T09:29:23;11.57;;;5.43;;
72406;SDS011;60396;47.550;18.828;2023-03-01T09:31:50;12.75;;;5.62;;
72406;SDS011;60396;47.550;18.828;2023-03-01T09:34:23;11.40;;;4.82;;
72406;SDS011;60396;47.550;18.828;2023-03-01T09:36:51;11.00;;;4.40;;
72406;SDS011;60396;47.550;18.828;2023-03-01T09:39:19;11.52;;;5.28;;
72406;SDS011;60396;47.550;18.828;2023-03-01T09:47:08;11.52;;;5.18;;
72406;SDS011;60396;47.550;18.828;2023-03-01T09:50:10;11.93;;;5.10;;
72406;SDS011;60396;47.550;18.828;2023-03-01T09:52:50;12.85;;;5.95;;
72406;SDS011;60396;47.550;18.828;2023-03-01T09:55:30;11.57;;;5.18;;
72406;SDS011;60396;47.550;18.828;2023-03-01T10:00:51;12.60;;;5.45;;
72406;SDS011;60396;47.550;18.828;2023-03-01T10:03:22;13.77;;;5.30;;
72406;SDS011;60396;47.550;18.828;2023-03-01T10:06:02;13.23;;;5.57;;
72406;SDS011;60396;47.550;18.828;2023-03-01T10:11:20;16.65;;;5.80;;
72406;SDS011;60396;47.550;18.828;2023-03-01T10:16:27;14.77;;;6.43;;
72406;SDS011;60396;47.550;18.828;2023-03-01T10:19:01;15.18;;;6.43;;
72406;SDS011;60396;47.550;18.828;2023-03-01T10:21:31;16.05;;;6.07;;
72406;SDS011;60396;47.550;18.828;2023-03-01T10:24:12;13.45;;;5.85;;
72406;SDS011;60396;47.550;18.828;2023-03-01T10:26:54;15.38;;;7.03;;
72406;SDS011;60396;47.550;18.828;2023-03-01T10:29:29;13.10;;;5.80;;
72406;SDS011;60396;47.550;18.828;2023-03-01T10:32:01;12.13;;;5.05;;
72406;SDS011;60396;47.550;18.828;2023-03-01T10:34:37;11.27;;;5.37;;
72406;SDS011;60396;47.550;18.828;2023-03-01T10:37:09;11.40;;;5.40;;
72406;SDS011;60396;47.550;18.828;2023-03-01T10:42:46;12.80;;;5.20;;
72406;SDS011;60396;47.550;18.828;2023-03-01T10:47:46;12.90;;;5.37;;
72406;SDS011;60396;47.550;18.828;2023-03-01T10:50:20;13.35;;;6.32;;
72406;SDS011;60396;47.550;18.828;2023-03-01T10:52:58;16.23;;;5.78;;
72406;SDS011;60396;47.550;18.828;2023-03-01T10:55:37;12.30;;;4.83;;
72406;SDS011;60396;47.550;18.828;2023-03-01T10:58:19;11.07;;;4.90;;
72406;SDS011;60396;47.550;18.828;2023-03-01T11:00:52;11.35;;;4.62;;
72406;SDS011;60396;47.550;18.828;2023-03-01T11:03:32;9.38;;;4.22;;
72406;SDS011;60396;47.550;18.828;2023-03-01T11:08:48;11.03;;;3.67;;
72406;SDS011;60396;47.550;18.828;2023-03-01T11:14:03;9.77;;;4.22;;
72406;SDS011;60396;47.550;18.828;2023-03-01T11:16:59;10.82;;;4.15;;
72406;SDS011;60396;47.550;18.828;2023-03-01T11:19:28;9.75;;;3.95;;
72406;SDS011;60396;47.550;18.828;2023-03-01T11:24:31;9.25;;;4.18;;
72406;SDS011;60396;47.550;18.828;2023-03-01T11:27:04;9.93;;;4.18;;
72406;SDS011;60396;47.550;18.828;2023-03-01T11:29:41;11.68;;;4.30;;
72406;SDS011;60396;47.550;18.828;2023-03-01T11:32:15;9.70;;;4.12;;
72406;SDS011;60396;47.550;18.828;2023-03-01T11:34:48;10.53;;;3.90;;
72406;SDS011;60396;47.550;18.828;2023-03-01T11:37:28;9.57;;;3.87;;
72406;SDS011;60396;47.550;18.828;2023-03-01T11:40:05;8.90;;;3.65;;
72406;SDS011;60396;47.550;18.828;2023-03-01T11:45:18;8.60;;;3.28;;
72406;SDS011;60396;47.550;18.828;2023-03-01T12:10:20;12.07;;;4.57;;
72406;SDS011;60396;47.550;18.828;2023-03-01T12:26:29;11.60;;;4.75;;
72406;SDS011;60396;47.550;18.828;2023-03-01T12:43:10;16.10;;;5.00;;
72406;SDS011;60396;47.550;18.828;2023-03-01T12:48:40;11.48;;;4.57;;
72406;SDS011;60396;47.550;18.828;2023-03-01T12:51:15;12.75;;;4.68;;
72406;SDS011;60396;47.550;18.828;2023-03-01T12:53:49;11.27;;;3.80;;
72406;SDS011;60396;47.550;18.828;2023-03-01T12:56:19;12.10;;;4.13;;
72406;SDS011;60396;47.550;18.828;2023-03-01T13:06:58;10.65;;;4.25;;
72406;SDS011;60396;47.550;18.828;2023-03-01T13:15:25;9.82;;;4.18;;
72406;SDS011;60396;47.550;18.828;2023-03-01T13:17:55;10.98;;;4.50;;
72406;SDS011;60396;47.550;18.828;2023-03-01T13:31:10;9.25;;;3.55;;
72406;SDS011;60396;47.550;18.828;2023-03-01T13:33:59;10.80;;;3.90;;
72406;SDS011;60396;47.550;18.828;2023-03-01T13:39:03;12.65;;;3.55;;
72406;SDS011;60396;47.550;18.828;2023-03-01T13:52:24;9.35;;;3.62;;
72406;SDS011;60396;47.550;18.828;2023-03-01T13:55:04;9.48;;;3.97;;
72406;SDS011;60396;47.550;18.828;2023-03-01T13:57:34;8.52;;;3.33;;
72406;SDS011;60396;47.550;18.828;2023-03-01T14:00:24;12.02;;;4.07;;
72406;SDS011;60396;47.550;18.828;2023-03-01T14:03:30;10.43;;;3.67;;
72406;SDS011;60396;47.550;18.828;2023-03-01T14:06:06;11.07;;;3.70;;
72406;SDS011;60396;47.550;18.828;2023-03-01T14:08:48;11.63;;;3.58;;
72406;SDS011;60396;47.550;18.828;2023-03-01T14:14:25;11.88;;;4.68;;
72406;SDS011;60396;47.550;18.828;2023-03-01T14:17:03;11.73;;;3.87;;
72406;SDS011;60396;47.550;18.828;2023-03-01T14:19:58;9.15;;;3.42;;
72406;SDS011;60396;47.550;18.828;2023-03-01T14:22:28;8.82;;;3.70;;
72406;SDS011;60396;47.550;18.828;2023-03-01T14:25:19;9.15;;;3.00;;
72406;SDS011;60396;47.550;18.828;2023-03-01T14:28:35;10.02;;;3.40;;
72406;SDS011;60396;47.550;18.828;2023-03-01T14:30:49;7.97;;;3.27;;
72406;SDS011;60396;47.550;18.828;2023-03-01T14:35:54;10.02;;;3.72;;
72406;SDS011;60396;47.550;18.828;2023-03-01T14:38:50;7.87;;;3.10;;
72406;SDS011;60396;47.550;18.828;2023-03-01T14:41:20;10.32;;;3.17;;
72406;SDS011;60396;47.550;18.828;2023-03-01T14:43:58;8.50;;;2.77;;
72406;SDS011;60396;47.550;18.828;2023-03-01T14:49:22;9.35;;;2.78;;
72406;SDS011;60396;47.550;18.828;2023-03-01T14:52:06;8.07;;;3.03;;
72406;SDS011;60396;47.550;18.828;2023-03-01T14:54:53;7.00;;;2.78;;
72406;SDS011;60396;47.550;18.828;2023-03-01T14:57:23;8.37;;;2.40;;
72406;SDS011;60396;47.550;18.828;2023-03-01T14:59:54;13.82;;;2.58;;
72406;SDS011;60396;47.550;18.828;2023-03-01T15:02:25;12.07;;;3.33;;
72406;SDS011;60396;47.550;18.828;2023-03-01T15:04:55;8.32;;;2.72;;
72406;SDS011;60396;47.550;18.828;2023-03-01T15:07:28;8.80;;;2.92;;
72406;SDS011;60396;47.550;18.828;2023-03-01T15:10:00;9.27;;;3.13;;
72406;SDS011;60396;47.550;18.828;2023-03-01T15:12:34;10.15;;;2.87;;
72406;SDS011;60396;47.550;18.828;2023-03-01T15:15:22;9.43;;;2.80;;
72406;SDS011;60396;47.550;18.828;2023-03-01T15:17:59;9.13;;;3.10;;
72406;SDS011;60396;47.550;18.828;2023-03-01T15:20:28;8.60;;;3.00;;
72406;SDS011;60396;47.550;18.828;2023-03-01T15:23:03;11.20;;;3.17;;
72406;SDS011;60396;47.550;18.828;2023-03-01T15:25:31;9.55;;;3.15;;
72406;SDS011;60396;47.550;18.828;2023-03-01T15:28:00;10.18;;;3.55;;
72406;SDS011;60396;47.550;18.828;2023-03-01T15:30:33;10.38;;;3.67;;
72406;SDS011;60396;47.550;18.828;2023-03-01T15:35:47;9.27;;;3.03;;
72406;SDS011;60396;47.550;18.828;2023-03-01T15:41:00;7.82;;;2.50;;
72406;SDS011;60396;47.550;18.828;2023-03-01T15:43:45;9.57;;;2.85;;
72406;SDS011;60396;47.550;18.828;2023-03-01T15:46:17;8.00;;;3.17;;
72406;SDS011;60396;47.550;18.828;2023-03-01T15:48:48;10.07;;;2.97;;
72406;SDS011;60396;47.550;18.828;2023-03-01T15:51:17;23.00;;;3.20;;
72406;SDS011;60396;47.550;18.828;2023-03-01T15:53:47;8.95;;;2.92;;
72406;SDS011;60396;47.550;18.828;2023-03-01T15:56:21;8.20;;;2.85;;
72406;SDS011;60396;47.550;18.828;2023-03-01T15:58:49;9.07;;;2.75;;
72406;SDS011;60396;47.550;18.828;2023-03-01T16:01:16;8.77;;;2.80;;
72406;SDS011;60396;47.550;18.828;2023-03-01T16:03:45;14.25;;;8.82;;
72406;SDS011;60396;47.550;18.828;2023-03-01T16:06:13;14.82;;;8.57;;
72406;SDS011;60396;47.550;18.828;2023-03-01T16:08:40;11.68;;;6.30;;
72406;SDS011;60396;47.550;18.828;2023-03-01T16:11:11;12.88;;;6.10;;
72406;SDS011;60396;47.550;18.828;2023-03-01T16:13:44;11.63;;;6.13;;
72406;SDS011;60396;47.550;18.828;2023-03-01T16:16:13;14.48;;;6.18;;
72406;SDS011;60396;47.550;18.828;2023-03-01T16:18:44;10.77;;;5.12;;
72406;SDS011;60396;47.550;18.828;2023-03-01T16:21:18;14.00;;;6.75;;
72406;SDS011;60396;47.550;18.828;2023-03-01T16:23:48;13.85;;;6.28;;
72406;SDS011;60396;47.550;18.828;2023-03-01T16:26:16;13.63;;;5.17;;
72406;SDS011;60396;47.550;18.828;2023-03-01T16:28:47;17.70;;;5.93;;
72406;SDS011;60396;47.550;18.828;2023-03-01T16:31:18;14.35;;;4.93;;
72406;SDS011;60396;47.550;18.828;2023-03-01T16:33:47;18.20;;;4.75;;
72406;SDS011;60396;47.550;18.828;2023-03-01T16:36:18;16.45;;;4.20;;
72406;SDS011;60396;47.550;18.828;2023-03-01T16:38:47;12.07;;;4.17;;
72406;SDS011;60396;47.550;18.828;2023-03-01T16:41:19;12.80;;;4.50;;
72406;SDS011;60396;47.550;18.828;2023-03-01T16:43:48;15.30;;;4.35;;
72406;SDS011;60396;47.550;18.828;2023-03-01T16:46:17;11.15;;;4.40;;
72406;SDS011;60396;47.550;18.828;2023-03-01T16:48:46;13.62;;;4.75;;
72406;SDS011;60396;47.550;18.828;2023-03-01T16:51:14;15.70;;;5.90;;
72406;SDS011;60396;47.550;18.828;2023-03-01T16:53:43;14.75;;;5.75;;
72406;SDS011;60396;47.550;18.828;2023-03-01T16:56:13;13.30;;;5.32;;
72406;SDS011;60396;47.550;18.828;2023-03-01T16:58:42;13.45;;;4.82;;
72406;SDS011;60396;47.550;18.828;2023-03-01T17:01:17;11.52;;;4.07;;
72406;SDS011;60396;47.550;18.828;2023-03-01T17:03:46;16.13;;;4.83;;
72406;SDS011;60396;47.550;18.828;2023-03-01T17:06:18;11.82;;;5.07;;
72406;SDS011;60396;47.550;18.828;2023-03-01T17:08:47;15.05;;;5.62;;
72406;SDS011;60396;47.550;18.828;2023-03-01T17:11:18;13.15;;;5.70;;
72406;SDS011;60396;47.550;18.828;2023-03-01T17:13:47;13.02;;;5.15;;